Stringtown, Iowa
Current Conditions -  °F | °C
As of 7:35 PM on Friday 24 Oct 2014 (Local Time) from KCSQ Reporting Station
Clear Clear  
Wind Chill: 64°   Ceiling: Unl
Heat Index: 64°   Visibility: 10mi
Dew Point: 61°   Wind: 6mph
Humidity: 88%   Direction: 290°WNW
Pressure: 29.96"   Gusts: NA
Location:  40.8856°N, 94.5654°W
Report Text: KCSQ 250035Z AUTO 29005KT 10SM CLR 18/16 A2996 RMK AO2
Loading
Personal Weather Stations






























Interactive Weather Map
Tropical Storm Tracking
New forecast layout! Learn more

10-Day Weather Forecast

Advertisements
Track Severe Weather on mobile